sensor_id;sensor_type;location;lat;lon;timestamp;P1;durP1;ratioP1;P2;durP2;ratioP2
74867;SDS011;63419;42.262;12.210;2023-02-28T00:01:33;12.35;;;4.03;;
74867;SDS011;63419;42.262;12.210;2023-02-28T00:04:00;5.40;;;1.33;;
74867;SDS011;63419;42.262;12.210;2023-02-28T00:06:28;4.45;;;1.23;;
74867;SDS011;63419;42.262;12.210;2023-02-28T00:08:55;5.15;;;1.50;;
74867;SDS011;63419;42.262;12.210;2023-02-28T00:11:22;7.15;;;2.38;;
74867;SDS011;63419;42.262;12.210;2023-02-28T00:13:50;22.40;;;7.65;;
74867;SDS011;63419;42.262;12.210;2023-02-28T00:16:18;7.30;;;1.70;;
74867;SDS011;63419;42.262;12.210;2023-02-28T00:18:49;4.28;;;1.30;;
74867;SDS011;63419;42.262;12.210;2023-02-28T00:21:17;4.30;;;1.08;;
74867;SDS011;63419;42.262;12.210;2023-02-28T00:23:46;4.05;;;1.13;;
74867;SDS011;63419;42.262;12.210;2023-02-28T00:26:14;4.60;;;1.00;;
74867;SDS011;63419;42.262;12.210;2023-02-28T00:31:09;2.88;;;0.60;;
74867;SDS011;63419;42.262;12.210;2023-02-28T00:33:36;3.80;;;1.00;;
74867;SDS011;63419;42.262;12.210;2023-02-28T00:36:07;3.47;;;0.90;;
74867;SDS011;63419;42.262;12.210;2023-02-28T00:38:37;3.17;;;0.75;;
74867;SDS011;63419;42.262;12.210;2023-02-28T00:41:07;2.67;;;0.63;;
74867;SDS011;63419;42.262;12.210;2023-02-28T00:43:35;3.20;;;0.50;;
74867;SDS011;63419;42.262;12.210;2023-02-28T00:46:05;1.95;;;0.45;;
74867;SDS011;63419;42.262;12.210;2023-02-28T00:48:33;2.78;;;0.60;;
74867;SDS011;63419;42.262;12.210;2023-02-28T00:51:00;3.13;;;0.70;;
74867;SDS011;63419;42.262;12.210;2023-02-28T00:53:28;2.42;;;0.50;;
74867;SDS011;63419;42.262;12.210;2023-02-28T00:55:56;4.85;;;0.80;;
74867;SDS011;63419;42.262;12.210;2023-02-28T00:58:24;3.40;;;0.60;;
74867;SDS011;63419;42.262;12.210;2023-02-28T01:00:52;2.72;;;0.60;;
74867;SDS011;63419;42.262;12.210;2023-02-28T01:03:20;3.60;;;0.70;;
74867;SDS011;63419;42.262;12.210;2023-02-28T01:05:49;2.53;;;0.50;;
74867;SDS011;63419;42.262;12.210;2023-02-28T01:08:17;2.70;;;0.63;;
74867;SDS011;63419;42.262;12.210;2023-02-28T01:10:44;2.50;;;0.50;;
74867;SDS011;63419;42.262;12.210;2023-02-28T01:13:12;3.08;;;0.70;;
74867;SDS011;63419;42.262;12.210;2023-02-28T01:15:42;3.00;;;0.73;;
74867;SDS011;63419;42.262;12.210;2023-02-28T01:18:17;2.65;;;0.60;;
74867;SDS011;63419;42.262;12.210;2023-02-28T01:20:45;2.55;;;0.60;;
74867;SDS011;63419;42.262;12.210;2023-02-28T01:23:13;6.35;;;1.13;;
74867;SDS011;63419;42.262;12.210;2023-02-28T01:25:40;3.35;;;0.70;;
74867;SDS011;63419;42.262;12.210;2023-02-28T01:28:07;3.50;;;0.70;;
74867;SDS011;63419;42.262;12.210;2023-02-28T01:30:35;2.35;;;0.45;;
74867;SDS011;63419;42.262;12.210;2023-02-28T01:33:02;2.35;;;0.52;;
74867;SDS011;63419;42.262;12.210;2023-02-28T01:35:32;2.70;;;0.63;;
74867;SDS011;63419;42.262;12.210;2023-02-28T01:38:01;2.80;;;0.70;;
74867;SDS011;63419;42.262;12.210;2023-02-28T01:40:46;3.20;;;0.63;;
74867;SDS011;63419;42.262;12.210;2023-02-28T01:43:25;2.70;;;0.60;;
74867;SDS011;63419;42.262;12.210;2023-02-28T01:45:56;3.35;;;0.50;;
74867;SDS011;63419;42.262;12.210;2023-02-28T01:48:26;4.03;;;0.57;;
74867;SDS011;63419;42.262;12.210;2023-02-28T01:51:02;3.30;;;0.80;;
74867;SDS011;63419;42.262;12.210;2023-02-28T01:53:40;5.13;;;0.80;;
74867;SDS011;63419;42.262;12.210;2023-02-28T01:56:33;2.90;;;0.55;;
74867;SDS011;63419;42.262;12.210;2023-02-28T01:59:03;3.05;;;0.65;;
74867;SDS011;63419;42.262;12.210;2023-02-28T02:01:31;2.83;;;0.73;;
74867;SDS011;63419;42.262;12.210;2023-02-28T02:04:01;3.83;;;0.80;;
74867;SDS011;63419;42.262;12.210;2023-02-28T02:06:34;3.35;;;0.52;;
74867;SDS011;63419;42.262;12.210;2023-02-28T02:09:10;3.10;;;0.82;;
74867;SDS011;63419;42.262;12.210;2023-02-28T02:11:43;3.42;;;0.77;;
74867;SDS011;63419;42.262;12.210;2023-02-28T02:17:37;3.33;;;0.65;;
74867;SDS011;63419;42.262;12.210;2023-02-28T02:26:25;3.13;;;0.65;;
74867;SDS011;63419;42.262;12.210;2023-02-28T02:32:47;2.88;;;0.70;;
74867;SDS011;63419;42.262;12.210;2023-02-28T02:41:23;2.78;;;0.60;;
74867;SDS011;63419;42.262;12.210;2023-02-28T02:44:40;2.35;;;0.52;;
74867;SDS011;63419;42.262;12.210;2023-02-28T02:47:39;2.17;;;0.43;;
74867;SDS011;63419;42.262;12.210;2023-02-28T02:50:14;6.78;;;0.82;;
74867;SDS011;63419;42.262;12.210;2023-02-28T02:52:57;3.00;;;0.60;;
74867;SDS011;63419;42.262;12.210;2023-02-28T02:55:29;2.13;;;0.43;;
74867;SDS011;63419;42.262;12.210;2023-02-28T02:58:07;2.88;;;0.57;;
74867;SDS011;63419;42.262;12.210;2023-02-28T03:00:46;2.70;;;0.57;;
74867;SDS011;63419;42.262;12.210;2023-02-28T03:03:28;3.10;;;1.10;;
74867;SDS011;63419;42.262;12.210;2023-02-28T03:06:00;2.10;;;0.45;;
74867;SDS011;63419;42.262;12.210;2023-02-28T03:08:36;2.75;;;0.47;;
74867;SDS011;63419;42.262;12.210;2023-02-28T03:11:12;2.20;;;0.50;;
74867;SDS011;63419;42.262;12.210;2023-02-28T03:13:52;2.22;;;0.50;;
74867;SDS011;63419;42.262;12.210;2023-02-28T03:22:45;2.42;;;0.40;;
74867;SDS011;63419;42.262;12.210;2023-02-28T03:25:32;2.80;;;0.52;;
74867;SDS011;63419;42.262;12.210;2023-02-28T03:28:15;3.17;;;0.75;;
74867;SDS011;63419;42.262;12.210;2023-02-28T03:33:42;3.65;;;0.63;;
74867;SDS011;63419;42.262;12.210;2023-02-28T03:36:32;3.63;;;0.65;;
74867;SDS011;63419;42.262;12.210;2023-02-28T03:39:34;2.67;;;0.60;;
74867;SDS011;63419;42.262;12.210;2023-02-28T03:42:15;2.17;;;0.50;;
74867;SDS011;63419;42.262;12.210;2023-02-28T03:44:55;2.03;;;0.38;;
74867;SDS011;63419;42.262;12.210;2023-02-28T03:50:11;3.03;;;0.88;;
74867;SDS011;63419;42.262;12.210;2023-02-28T03:52:48;2.15;;;0.30;;
74867;SDS011;63419;42.262;12.210;2023-02-28T03:55:28;3.70;;;0.50;;
74867;SDS011;63419;42.262;12.210;2023-02-28T03:58:44;1.77;;;0.50;;
74867;SDS011;63419;42.262;12.210;2023-02-28T04:04:11;3.35;;;0.63;;
74867;SDS011;63419;42.262;12.210;2023-02-28T04:06:44;3.28;;;0.70;;
74867;SDS011;63419;42.262;12.210;2023-02-28T04:09:26;2.72;;;0.50;;
74867;SDS011;63419;42.262;12.210;2023-02-28T04:12:01;3.50;;;0.70;;
74867;SDS011;63419;42.262;12.210;2023-02-28T04:14:31;3.05;;;0.70;;
74867;SDS011;63419;42.262;12.210;2023-02-28T04:17:09;5.53;;;0.57;;
74867;SDS011;63419;42.262;12.210;2023-02-28T04:19:39;2.50;;;0.40;;
74867;SDS011;63419;42.262;12.210;2023-02-28T04:22:11;4.63;;;0.70;;
74867;SDS011;63419;42.262;12.210;2023-02-28T04:24:42;1.98;;;0.45;;
74867;SDS011;63419;42.262;12.210;2023-02-28T04:27:12;2.28;;;0.60;;
74867;SDS011;63419;42.262;12.210;2023-02-28T04:29:43;2.15;;;0.43;;
74867;SDS011;63419;42.262;12.210;2023-02-28T04:32:11;2.28;;;0.43;;
74867;SDS011;63419;42.262;12.210;2023-02-28T04:34:40;2.55;;;0.70;;
74867;SDS011;63419;42.262;12.210;2023-02-28T04:37:09;3.47;;;0.63;;
74867;SDS011;63419;42.262;12.210;2023-02-28T04:39:42;2.83;;;0.60;;
74867;SDS011;63419;42.262;12.210;2023-02-28T04:42:16;2.53;;;0.75;;
74867;SDS011;63419;42.262;12.210;2023-02-28T04:44:45;2.35;;;0.40;;
74867;SDS011;63419;42.262;12.210;2023-02-28T04:47:14;3.10;;;0.60;;
74867;SDS011;63419;42.262;12.210;2023-02-28T04:49:42;2.67;;;0.50;;
74867;SDS011;63419;42.262;12.210;2023-02-28T04:52:10;3.47;;;0.65;;
74867;SDS011;63419;42.262;12.210;2023-02-28T04:54:38;2.80;;;0.55;;
74867;SDS011;63419;42.262;12.210;2023-02-28T04:57:05;2.67;;;0.93;;
74867;SDS011;63419;42.262;12.210;2023-02-28T04:59:38;2.97;;;0.60;;
74867;SDS011;63419;42.262;12.210;2023-02-28T05:02:09;2.42;;;0.50;;
74867;SDS011;63419;42.262;12.210;2023-02-28T05:04:36;2.00;;;0.38;;
74867;SDS011;63419;42.262;12.210;2023-02-28T05:07:04;3.10;;;0.60;;
74867;SDS011;63419;42.262;12.210;2023-02-28T05:09:32;2.53;;;0.40;;
74867;SDS011;63419;42.262;12.210;2023-02-28T05:11:59;2.42;;;0.50;;
74867;SDS011;63419;42.262;12.210;2023-02-28T05:14:26;4.65;;;0.68;;
74867;SDS011;63419;42.262;12.210;2023-02-28T05:16:54;5.05;;;0.65;;
74867;SDS011;63419;42.262;12.210;2023-02-28T05:19:26;2.25;;;0.40;;
74867;SDS011;63419;42.262;12.210;2023-02-28T05:21:55;2.47;;;0.60;;
74867;SDS011;63419;42.262;12.210;2023-02-28T05:24:23;2.47;;;0.70;;
74867;SDS011;63419;42.262;12.210;2023-02-28T05:26:51;3.03;;;0.25;;
74867;SDS011;63419;42.262;12.210;2023-02-28T05:29:25;2.58;;;0.45;;
74867;SDS011;63419;42.262;12.210;2023-02-28T05:31:52;2.38;;;0.30;;
74867;SDS011;63419;42.262;12.210;2023-02-28T05:34:19;1.63;;;0.40;;
74867;SDS011;63419;42.262;12.210;2023-02-28T05:36:47;6.00;;;0.60;;
74867;SDS011;63419;42.262;12.210;2023-02-28T05:39:16;3.08;;;0.60;;
74867;SDS011;63419;42.262;12.210;2023-02-28T05:41:48;3.13;;;0.50;;
74867;SDS011;63419;42.262;12.210;2023-02-28T05:44:15;2.05;;;0.40;;
74867;SDS011;63419;42.262;12.210;2023-02-28T05:46:42;1.65;;;0.40;;
74867;SDS011;63419;42.262;12.210;2023-02-28T05:49:10;1.88;;;0.50;;
74867;SDS011;63419;42.262;12.210;2023-02-28T05:51:51;3.97;;;0.63;;
74867;SDS011;63419;42.262;12.210;2023-02-28T05:54:18;2.60;;;0.60;;
74867;SDS011;63419;42.262;12.210;2023-02-28T05:56:48;1.65;;;0.30;;
74867;SDS011;63419;42.262;12.210;2023-02-28T05:59:17;3.72;;;0.50;;
74867;SDS011;63419;42.262;12.210;2023-02-28T06:01:47;1.98;;;0.35;;
74867;SDS011;63419;42.262;12.210;2023-02-28T06:04:25;4.30;;;0.50;;
74867;SDS011;63419;42.262;12.210;2023-02-28T06:06:57;1.60;;;0.40;;
74867;SDS011;63419;42.262;12.210;2023-02-28T06:09:24;2.20;;;0.45;;
74867;SDS011;63419;42.262;12.210;2023-02-28T06:11:57;2.38;;;0.57;;
74867;SDS011;63419;42.262;12.210;2023-02-28T06:14:27;2.58;;;0.43;;
74867;SDS011;63419;42.262;12.210;2023-02-28T06:16:54;2.08;;;0.40;;
74867;SDS011;63419;42.262;12.210;2023-02-28T06:19:24;2.70;;;0.60;;
74867;SDS011;63419;42.262;12.210;2023-02-28T06:21:54;3.00;;;0.73;;
74867;SDS011;63419;42.262;12.210;2023-02-28T06:24:24;2.25;;;0.43;;
74867;SDS011;63419;42.262;12.210;2023-02-28T06:26:56;3.13;;;0.60;;
74867;SDS011;63419;42.262;12.210;2023-02-28T06:29:32;3.78;;;0.50;;
74867;SDS011;63419;42.262;12.210;2023-02-28T06:32:09;2.53;;;0.40;;
74867;SDS011;63419;42.262;12.210;2023-02-28T06:34:38;2.08;;;0.40;;
74867;SDS011;63419;42.262;12.210;2023-02-28T06:37:07;2.70;;;0.60;;
74867;SDS011;63419;42.262;12.210;2023-02-28T06:39:36;3.10;;;0.70;;
74867;SDS011;63419;42.262;12.210;2023-02-28T06:42:06;2.05;;;0.45;;
74867;SDS011;63419;42.262;12.210;2023-02-28T06:44:34;2.95;;;0.50;;
74867;SDS011;63419;42.262;12.210;2023-02-28T06:49:36;3.10;;;0.40;;
74867;SDS011;63419;42.262;12.210;2023-02-28T06:52:06;2.38;;;0.60;;
74867;SDS011;63419;42.262;12.210;2023-02-28T06:54:37;2.70;;;0.50;;
74867;SDS011;63419;42.262;12.210;2023-02-28T06:57:04;3.17;;;0.75;;
74867;SDS011;63419;42.262;12.210;2023-02-28T06:59:31;2.08;;;0.45;;
74867;SDS011;63419;42.262;12.210;2023-02-28T07:02:07;3.78;;;0.68;;
74867;SDS011;63419;42.262;12.210;2023-02-28T07:04:35;5.80;;;0.75;;
74867;SDS011;63419;42.262;12.210;2023-02-28T07:07:04;2.63;;;0.50;;
74867;SDS011;63419;42.262;12.210;2023-02-28T07:09:34;3.65;;;0.50;;
74867;SDS011;63419;42.262;12.210;2023-02-28T07:12:02;2.05;;;0.47;;
74867;SDS011;63419;42.262;12.210;2023-02-28T07:14:29;2.78;;;0.43;;
74867;SDS011;63419;42.262;12.210;2023-02-28T07:16:56;2.35;;;0.40;;
74867;SDS011;63419;42.262;12.210;2023-02-28T07:19:26;2.13;;;0.50;;
74867;SDS011;63419;42.262;12.210;2023-02-28T07:21:57;2.13;;;0.40;;
74867;SDS011;63419;42.262;12.210;2023-02-28T07:27:00;1.98;;;0.40;;
74867;SDS011;63419;42.262;12.210;2023-02-28T07:29:29;2.95;;;0.50;;
74867;SDS011;63419;42.262;12.210;2023-02-28T07:31:59;4.28;;;0.60;;
74867;SDS011;63419;42.262;12.210;2023-02-28T07:34:28;2.95;;;0.57;;
74867;SDS011;63419;42.262;12.210;2023-02-28T07:36:55;2.45;;;0.50;;
74867;SDS011;63419;42.262;12.210;2023-02-28T07:39:25;3.13;;;0.40;;
74867;SDS011;63419;42.262;12.210;2023-02-28T07:41:53;4.13;;;1.02;;
74867;SDS011;63419;42.262;12.210;2023-02-28T07:44:23;3.35;;;1.02;;
74867;SDS011;63419;42.262;12.210;2023-02-28T07:46:51;2.92;;;0.60;;
74867;SDS011;63419;42.262;12.210;2023-02-28T07:49:21;2.72;;;0.60;;
74867;SDS011;63419;42.262;12.210;2023-02-28T07:51:49;3.60;;;0.80;;
74867;SDS011;63419;42.262;12.210;2023-02-28T07:54:18;3.92;;;0.90;;
74867;SDS011;63419;42.262;12.210;2023-02-28T07:56:46;3.00;;;0.70;;
74867;SDS011;63419;42.262;12.210;2023-02-28T07:59:21;3.17;;;0.60;;
74867;SDS011;63419;42.262;12.210;2023-02-28T08:01:50;2.65;;;0.70;;
74867;SDS011;63419;42.262;12.210;2023-02-28T08:04:25;2.30;;;0.50;;
74867;SDS011;63419;42.262;12.210;2023-02-28T08:06:56;2.63;;;0.50;;
74867;SDS011;63419;42.262;12.210;2023-02-28T08:09:28;4.93;;;0.75;;
74867;SDS011;63419;42.262;12.210;2023-02-28T08:12:00;2.95;;;0.63;;
74867;SDS011;63419;42.262;12.210;2023-02-28T08:14:29;2.78;;;0.47;;
74867;SDS011;63419;42.262;12.210;2023-02-28T08:16:57;4.50;;;0.93;;
74867;SDS011;63419;42.262;12.210;2023-02-28T08:19:32;5.38;;;1.55;;
74867;SDS011;63419;42.262;12.210;2023-02-28T08:22:00;4.35;;;0.95;;
74867;SDS011;63419;42.262;12.210;2023-02-28T08:24:29;2.80;;;0.70;;
74867;SDS011;63419;42.262;12.210;2023-02-28T08:26:57;3.13;;;0.80;;
74867;SDS011;63419;42.262;12.210;2023-02-28T08:29:26;2.78;;;0.70;;
74867;SDS011;63419;42.262;12.210;2023-02-28T08:31:55;2.25;;;0.60;;
74867;SDS011;63419;42.262;12.210;2023-02-28T08:34:24;2.92;;;0.70;;
74867;SDS011;63419;42.262;12.210;2023-02-28T08:36:51;3.15;;;0.68;;
74867;SDS011;63419;42.262;12.210;2023-02-28T08:39:19;3.92;;;0.90;;
74867;SDS011;63419;42.262;12.210;2023-02-28T08:42:00;4.80;;;0.60;;
74867;SDS011;63419;42.262;12.210;2023-02-28T08:44:33;3.20;;;0.70;;
74867;SDS011;63419;42.262;12.210;2023-02-28T08:47:04;2.63;;;0.75;;
74867;SDS011;63419;42.262;12.210;2023-02-28T08:49:34;1.98;;;0.40;;
74867;SDS011;63419;42.262;12.210;2023-02-28T08:52:05;2.70;;;0.55;;
74867;SDS011;63419;42.262;12.210;2023-02-28T08:57:02;3.28;;;0.77;;
74867;SDS011;63419;42.262;12.210;2023-02-28T08:59:29;3.17;;;0.85;;
74867;SDS011;63419;42.262;12.210;2023-02-28T09:01:56;3.70;;;0.73;;
74867;SDS011;63419;42.262;12.210;2023-02-28T09:04:24;3.35;;;0.80;;
74867;SDS011;63419;42.262;12.210;2023-02-28T09:06:52;3.40;;;0.80;;
74867;SDS011;63419;42.262;12.210;2023-02-28T09:09:25;2.85;;;0.80;;
74867;SDS011;63419;42.262;12.210;2023-02-28T09:11:56;3.95;;;0.65;;
74867;SDS011;63419;42.262;12.210;2023-02-28T09:14:24;5.45;;;0.70;;
74867;SDS011;63419;42.262;12.210;2023-02-28T09:16:52;2.80;;;0.70;;
74867;SDS011;63419;42.262;12.210;2023-02-28T09:19:19;3.63;;;0.50;;
74867;SDS011;63419;42.262;12.210;2023-02-28T09:21:54;2.08;;;0.50;;
74867;SDS011;63419;42.262;12.210;2023-02-28T09:24:21;3.58;;;0.45;;
74867;SDS011;63419;42.262;12.210;2023-02-28T09:26:49;3.60;;;0.60;;
74867;SDS011;63419;42.262;12.210;2023-02-28T09:29:29;2.90;;;0.60;;
74867;SDS011;63419;42.262;12.210;2023-02-28T09:31:57;3.28;;;0.80;;
74867;SDS011;63419;42.262;12.210;2023-02-28T09:34:27;3.67;;;0.90;;
74867;SDS011;63419;42.262;12.210;2023-02-28T09:36:58;4.53;;;1.25;;
74867;SDS011;63419;42.262;12.210;2023-02-28T09:39:34;5.93;;;0.80;;
74867;SDS011;63419;42.262;12.210;2023-02-28T09:44:35;3.40;;;0.82;;
74867;SDS011;63419;42.262;12.210;2023-02-28T09:47:25;3.30;;;0.80;;
74867;SDS011;63419;42.262;12.210;2023-02-28T09:50:23;3.60;;;0.70;;
74867;SDS011;63419;42.262;12.210;2023-02-28T09:52:54;2.20;;;0.45;;
74867;SDS011;63419;42.262;12.210;2023-02-28T09:58:37;2.75;;;0.65;;
74867;SDS011;63419;42.262;12.210;2023-02-28T10:01:22;3.45;;;0.75;;
74867;SDS011;63419;42.262;12.210;2023-02-28T10:10:30;2.83;;;0.47;;
74867;SDS011;63419;42.262;12.210;2023-02-28T10:16:34;2.65;;;0.57;;
74867;SDS011;63419;42.262;12.210;2023-02-28T10:19:24;2.92;;;0.60;;
74867;SDS011;63419;42.262;12.210;2023-02-28T10:25:23;3.63;;;0.70;;
74867;SDS011;63419;42.262;12.210;2023-02-28T10:27:59;3.88;;;1.10;;
74867;SDS011;63419;42.262;12.210;2023-02-28T10:30:36;3.22;;;0.95;;
74867;SDS011;63419;42.262;12.210;2023-02-28T10:33:17;2.65;;;0.50;;
74867;SDS011;63419;42.262;12.210;2023-02-28T10:35:54;2.05;;;0.68;;
74867;SDS011;63419;42.262;12.210;2023-02-28T10:41:06;4.57;;;0.82;;
74867;SDS011;63419;42.262;12.210;2023-02-28T10:44:11;2.47;;;0.60;;
74867;SDS011;63419;42.262;12.210;2023-02-28T10:46:40;3.80;;;0.90;;
74867;SDS011;63419;42.262;12.210;2023-02-28T10:49:14;2.15;;;0.40;;
74867;SDS011;63419;42.262;12.210;2023-02-28T10:51:56;3.53;;;0.68;;
74867;SDS011;63419;42.262;12.210;2023-02-28T10:54:30;2.58;;;0.60;;
74867;SDS011;63419;42.262;12.210;2023-02-28T10:57:18;2.25;;;0.50;;
74867;SDS011;63419;42.262;12.210;2023-02-28T11:00:06;2.08;;;0.50;;
74867;SDS011;63419;42.262;12.210;2023-02-28T11:02:46;3.65;;;0.82;;
74867;SDS011;63419;42.262;12.210;2023-02-28T11:08:06;3.55;;;0.80;;
74867;SDS011;63419;42.262;12.210;2023-02-28T11:10:44;2.25;;;0.45;;
74867;SDS011;63419;42.262;12.210;2023-02-28T11:13:24;3.00;;;0.77;;
74867;SDS011;63419;42.262;12.210;2023-02-28T11:16:04;1.67;;;0.45;;
74867;SDS011;63419;42.262;12.210;2023-02-28T11:21:16;4.28;;;0.80;;
74867;SDS011;63419;42.262;12.210;2023-02-28T11:24:01;2.00;;;0.50;;
74867;SDS011;63419;42.262;12.210;2023-02-28T11:26:49;2.40;;;0.40;;
74867;SDS011;63419;42.262;12.210;2023-02-28T11:29:26;2.92;;;0.60;;
74867;SDS011;63419;42.262;12.210;2023-02-28T11:32:12;2.88;;;0.47;;
74867;SDS011;63419;42.262;12.210;2023-02-28T11:37:58;2.55;;;0.65;;
74867;SDS011;63419;42.262;12.210;2023-02-28T11:40:34;2.35;;;0.43;;
74867;SDS011;63419;42.262;12.210;2023-02-28T11:51:25;2.75;;;0.50;;
74867;SDS011;63419;42.262;12.210;2023-02-28T11:54:09;2.53;;;0.60;;
74867;SDS011;63419;42.262;12.210;2023-02-28T11:57:03;2.05;;;0.50;;
74867;SDS011;63419;42.262;12.210;2023-02-28T11:59:55;1.98;;;0.32;;
74867;SDS011;63419;42.262;12.210;2023-02-28T12:02:33;4.63;;;0.60;;
74867;SDS011;63419;42.262;12.210;2023-02-28T12:11:16;3.63;;;0.93;;
74867;SDS011;63419;42.262;12.210;2023-02-28T12:19:48;5.05;;;1.35;;
74867;SDS011;63419;42.262;12.210;2023-02-28T12:26:00;3.15;;;0.60;;
74867;SDS011;63419;42.262;12.210;2023-02-28T12:28:52;4.45;;;1.10;;
74867;SDS011;63419;42.262;12.210;2023-02-28T12:31:36;3.72;;;0.90;;
74867;SDS011;63419;42.262;12.210;2023-02-28T12:34:16;3.72;;;0.90;;
74867;SDS011;63419;42.262;12.210;2023-02-28T12:36:55;3.05;;;0.75;;
74867;SDS011;63419;42.262;12.210;2023-02-28T12:39:36;2.97;;;0.50;;
74867;SDS011;63419;42.262;12.210;2023-02-28T12:42:29;3.08;;;0.68;;
74867;SDS011;63419;42.262;12.210;2023-02-28T12:45:10;4.13;;;1.17;;
74867;SDS011;63419;42.262;12.210;2023-02-28T12:48:00;4.43;;;0.90;;
74867;SDS011;63419;42.262;12.210;2023-02-28T12:50:33;3.03;;;0.52;;
74867;SDS011;63419;42.262;12.210;2023-02-28T12:56:45;4.00;;;1.02;;
74867;SDS011;63419;42.262;12.210;2023-02-28T13:11:50;3.35;;;0.73;;
74867;SDS011;63419;42.262;12.210;2023-02-28T13:14:24;3.83;;;0.70;;
74867;SDS011;63419;42.262;12.210;2023-02-28T13:19:40;4.43;;;0.95;;
74867;SDS011;63419;42.262;12.210;2023-02-28T13:24:53;3.80;;;0.98;;
74867;SDS011;63419;42.262;12.210;2023-02-28T13:27:32;4.15;;;0.88;;
74867;SDS011;63419;42.262;12.210;2023-02-28T13:33:37;3.10;;;0.73;;
74867;SDS011;63419;42.262;12.210;2023-02-28T13:36:30;3.33;;;0.82;;
74867;SDS011;63419;42.262;12.210;2023-02-28T13:42:32;3.80;;;0.93;;
74867;SDS011;63419;42.262;12.210;2023-02-28T13:47:39;3.28;;;0.75;;
74867;SDS011;63419;42.262;12.210;2023-02-28T13:50:20;3.67;;;0.88;;
74867;SDS011;63419;42.262;12.210;2023-02-28T13:58:48;8.02;;;2.42;;
74867;SDS011;63419;42.262;12.210;2023-02-28T14:01:41;4.43;;;1.35;;
74867;SDS011;63419;42.262;12.210;2023-02-28T14:07:48;5.20;;;1.38;;
74867;SDS011;63419;42.262;12.210;2023-02-28T14:10:24;5.78;;;1.35;;
74867;SDS011;63419;42.262;12.210;2023-02-28T14:16:17;6.00;;;1.60;;
74867;SDS011;63419;42.262;12.210;2023-02-28T14:18:58;5.55;;;1.88;;
74867;SDS011;63419;42.262;12.210;2023-02-28T14:21:39;4.95;;;1.60;;
74867;SDS011;63419;42.262;12.210;2023-02-28T14:33:29;4.60;;;1.42;;
74867;SDS011;63419;42.262;12.210;2023-02-28T14:36:32;4.68;;;1.60;;
74867;SDS011;63419;42.262;12.210;2023-02-28T14:41:46;8.18;;;2.83;;
74867;SDS011;63419;42.262;12.210;2023-02-28T14:44:25;7.82;;;2.50;;
74867;SDS011;63419;42.262;12.210;2023-02-28T14:47:02;6.60;;;2.38;;
74867;SDS011;63419;42.262;12.210;2023-02-28T14:49:45;6.03;;;1.75;;
74867;SDS011;63419;42.262;12.210;2023-02-28T14:54:57;4.93;;;1.75;;
74867;SDS011;63419;42.262;12.210;2023-02-28T14:57:42;11.23;;;3.60;;
74867;SDS011;63419;42.262;12.210;2023-02-28T15:00:25;8.93;;;3.20;;
74867;SDS011;63419;42.262;12.210;2023-02-28T15:02:58;6.50;;;2.42;;
74867;SDS011;63419;42.262;12.210;2023-02-28T15:05:54;7.57;;;2.78;;
74867;SDS011;63419;42.262;12.210;2023-02-28T15:08:26;7.57;;;2.55;;
74867;SDS011;63419;42.262;12.210;2023-02-28T15:10:57;6.47;;;2.28;;
74867;SDS011;63419;42.262;12.210;2023-02-28T15:13:40;10.07;;;3.50;;
74867;SDS011;63419;42.262;12.210;2023-02-28T15:16:17;7.80;;;3.13;;
74867;SDS011;63419;42.262;12.210;2023-02-28T15:19:22;8.13;;;3.33;;
74867;SDS011;63419;42.262;12.210;2023-02-28T15:22:02;9.13;;;3.22;;
74867;SDS011;63419;42.262;12.210;2023-02-28T15:24:46;9.43;;;3.05;;
74867;SDS011;63419;42.262;12.210;2023-02-28T15:27:25;8.02;;;3.47;;
74867;SDS011;63419;42.262;12.210;2023-02-28T15:30:04;5.57;;;2.00;;
74867;SDS011;63419;42.262;12.210;2023-02-28T15:33:07;5.80;;;2.15;;
74867;SDS011;63419;42.262;12.210;2023-02-28T15:35:40;5.35;;;1.60;;
74867;SDS011;63419;42.262;12.210;2023-02-28T15:38:17;5.90;;;2.00;;
74867;SDS011;63419;42.262;12.210;2023-02-28T15:40:55;7.45;;;3.20;;
74867;SDS011;63419;42.262;12.210;2023-02-28T15:43:36;14.50;;;6.05;;
74867;SDS011;63419;42.262;12.210;2023-02-28T15:46:08;9.35;;;5.30;;
74867;SDS011;63419;42.262;12.210;2023-02-28T15:51:28;8.40;;;3.50;;
74867;SDS011;63419;42.262;12.210;2023-02-28T15:56:46;17.92;;;4.95;;
74867;SDS011;63419;42.262;12.210;2023-02-28T15:59:28;12.02;;;3.80;;
74867;SDS011;63419;42.262;12.210;2023-02-28T16:02:11;11.65;;;4.60;;
74867;SDS011;63419;42.262;12.210;2023-02-28T16:07:40;14.77;;;5.88;;
74867;SDS011;63419;42.262;12.210;2023-02-28T16:10:11;16.10;;;8.43;;
74867;SDS011;63419;42.262;12.210;2023-02-28T16:12:41;10.10;;;5.00;;
74867;SDS011;63419;42.262;12.210;2023-02-28T16:15:17;11.77;;;4.88;;
74867;SDS011;63419;42.262;12.210;2023-02-28T16:17:47;8.40;;;3.88;;
74867;SDS011;63419;42.262;12.210;2023-02-28T16:20:18;7.03;;;3.28;;
74867;SDS011;63419;42.262;12.210;2023-02-28T16:22:57;5.90;;;2.47;;
74867;SDS011;63419;42.262;12.210;2023-02-28T16:25:37;5.85;;;2.30;;
74867;SDS011;63419;42.262;12.210;2023-02-28T16:28:12;4.70;;;1.77;;
74867;SDS011;63419;42.262;12.210;2023-02-28T16:30:51;7.85;;;2.17;;
74867;SDS011;63419;42.262;12.210;2023-02-28T16:33:22;6.72;;;1.70;;
74867;SDS011;63419;42.262;12.210;2023-02-28T16:35:53;6.45;;;2.03;;
74867;SDS011;63419;42.262;12.210;2023-02-28T16:38:24;4.10;;;1.35;;
74867;SDS011;63419;42.262;12.210;2023-02-28T16:40:55;5.63;;;1.35;;
74867;SDS011;63419;42.262;12.210;2023-02-28T16:43:35;5.75;;;1.88;;
74867;SDS011;63419;42.262;12.210;2023-02-28T16:46:08;5.35;;;1.88;;
74867;SDS011;63419;42.262;12.210;2023-02-28T16:48:44;5.85;;;1.95;;
74867;SDS011;63419;42.262;12.210;2023-02-28T16:51:19;9.00;;;2.25;;
74867;SDS011;63419;42.262;12.210;2023-02-28T16:53:48;11.15;;;4.75;;
74867;SDS011;63419;42.262;12.210;2023-02-28T16:56:18;7.50;;;2.78;;
74867;SDS011;63419;42.262;12.210;2023-02-28T16:58:54;5.75;;;2.00;;
74867;SDS011;63419;42.262;12.210;2023-02-28T17:01:34;7.57;;;2.38;;
74867;SDS011;63419;42.262;12.210;2023-02-28T17:04:03;8.15;;;3.20;;
74867;SDS011;63419;42.262;12.210;2023-02-28T17:06:32;7.43;;;2.25;;
74867;SDS011;63419;42.262;12.210;2023-02-28T17:08:59;6.32;;;2.22;;
74867;SDS011;63419;42.262;12.210;2023-02-28T17:11:27;10.88;;;4.22;;
74867;SDS011;63419;42.262;12.210;2023-02-28T17:13:55;10.68;;;3.88;;
74867;SDS011;63419;42.262;12.210;2023-02-28T17:19:04;9.25;;;4.10;;
74867;SDS011;63419;42.262;12.210;2023-02-28T17:21:38;8.82;;;4.50;;
74867;SDS011;63419;42.262;12.210;2023-02-28T17:24:08;9.38;;;3.80;;
74867;SDS011;63419;42.262;12.210;2023-02-28T17:26:44;9.30;;;4.53;;
74867;SDS011;63419;42.262;12.210;2023-02-28T17:29:17;11.63;;;5.53;;
74867;SDS011;63419;42.262;12.210;2023-02-28T17:31:55;11.50;;;5.03;;
74867;SDS011;63419;42.262;12.210;2023-02-28T17:34:28;8.68;;;4.35;;
74867;SDS011;63419;42.262;12.210;2023-02-28T17:36:58;10.40;;;4.57;;
74867;SDS011;63419;42.262;12.210;2023-02-28T17:39:29;9.73;;;4.65;;
74867;SDS011;63419;42.262;12.210;2023-02-28T17:42:00;9.63;;;4.43;;
74867;SDS011;63419;42.262;12.210;2023-02-28T17:44:27;10.90;;;4.18;;
74867;SDS011;63419;42.262;12.210;2023-02-28T17:46:56;16.10;;;5.68;;
74867;SDS011;63419;42.262;12.210;2023-02-28T17:49:24;17.02;;;5.65;;
74867;SDS011;63419;42.262;12.210;2023-02-28T17:51:58;12.10;;;4.82;;
74867;SDS011;63419;42.262;12.210;2023-02-28T17:54:31;8.13;;;3.85;;
74867;SDS011;63419;42.262;12.210;2023-02-28T17:57:04;9.77;;;4.07;;
74867;SDS011;63419;42.262;12.210;2023-02-28T17:59:36;10.23;;;4.28;;
74867;SDS011;63419;42.262;12.210;2023-02-28T18:02:09;11.18;;;3.90;;